sensor_id;sensor_type;location;lat;lon;timestamp;P1;durP1;ratioP1;P2;durP2;ratioP2
16870;SDS011;8552;48.120;-1.456;2022-10-10T00:01:30;5.40;;;3.10;;
16870;SDS011;8552;48.120;-1.456;2022-10-10T00:03:57;6.97;;;3.60;;
16870;SDS011;8552;48.120;-1.456;2022-10-10T00:06:23;4.70;;;3.10;;
16870;SDS011;8552;48.120;-1.456;2022-10-10T00:08:50;5.50;;;2.95;;
16870;SDS011;8552;48.120;-1.456;2022-10-10T00:11:17;6.68;;;3.00;;
16870;SDS011;8552;48.120;-1.456;2022-10-10T00:13:44;5.50;;;3.50;;
16870;SDS011;8552;48.120;-1.456;2022-10-10T00:16:10;8.70;;;3.47;;
16870;SDS011;8552;48.120;-1.456;2022-10-10T00:18:36;3.35;;;2.88;;
16870;SDS011;8552;48.120;-1.456;2022-10-10T00:21:03;7.20;;;3.75;;
16870;SDS011;8552;48.120;-1.456;2022-10-10T00:23:29;8.25;;;3.97;;
16870;SDS011;8552;48.120;-1.456;2022-10-10T00:25:55;6.55;;;3.80;;
16870;SDS011;8552;48.120;-1.456;2022-10-10T00:28:21;10.15;;;3.90;;
16870;SDS011;8552;48.120;-1.456;2022-10-10T00:30:47;7.53;;;4.22;;
16870;SDS011;8552;48.120;-1.456;2022-10-10T00:33:13;4.80;;;3.60;;
16870;SDS011;8552;48.120;-1.456;2022-10-10T00:35:38;6.95;;;3.45;;
16870;SDS011;8552;48.120;-1.456;2022-10-10T00:38:04;5.75;;;3.08;;
16870;SDS011;8552;48.120;-1.456;2022-10-10T00:40:30;5.65;;;3.65;;
16870;SDS011;8552;48.120;-1.456;2022-10-10T00:42:57;7.25;;;3.58;;
16870;SDS011;8552;48.120;-1.456;2022-10-10T00:45:36;5.15;;;2.58;;
16870;SDS011;8552;48.120;-1.456;2022-10-10T00:50:42;6.78;;;3.47;;
16870;SDS011;8552;48.120;-1.456;2022-10-10T00:53:12;6.45;;;2.70;;
16870;SDS011;8552;48.120;-1.456;2022-10-10T00:55:40;7.10;;;3.25;;
16870;SDS011;8552;48.120;-1.456;2022-10-10T00:58:07;4.15;;;2.95;;
16870;SDS011;8552;48.120;-1.456;2022-10-10T01:00:34;6.20;;;2.72;;
16870;SDS011;8552;48.120;-1.456;2022-10-10T01:03:00;7.38;;;2.83;;
16870;SDS011;8552;48.120;-1.456;2022-10-10T01:05:26;5.70;;;2.92;;
16870;SDS011;8552;48.120;-1.456;2022-10-10T01:07:51;5.38;;;3.13;;
16870;SDS011;8552;48.120;-1.456;2022-10-10T01:10:18;8.85;;;3.45;;
16870;SDS011;8552;48.120;-1.456;2022-10-10T01:27:36;8.45;;;4.35;;
16870;SDS011;8552;48.120;-1.456;2022-10-10T01:29:51;6.07;;;3.63;;
16870;SDS011;8552;48.120;-1.456;2022-10-10T01:32:22;6.93;;;3.80;;
16870;SDS011;8552;48.120;-1.456;2022-10-10T01:40:35;6.63;;;4.05;;
16870;SDS011;8552;48.120;-1.456;2022-10-10T01:43:14;7.63;;;4.50;;
16870;SDS011;8552;48.120;-1.456;2022-10-10T01:45:42;6.40;;;4.70;;
16870;SDS011;8552;48.120;-1.456;2022-10-10T01:48:12;9.32;;;4.95;;
16870;SDS011;8552;48.120;-1.456;2022-10-10T01:50:53;7.07;;;4.07;;
16870;SDS011;8552;48.120;-1.456;2022-10-10T01:55:54;7.93;;;4.38;;
16870;SDS011;8552;48.120;-1.456;2022-10-10T02:01:33;6.97;;;4.72;;
16870;SDS011;8552;48.120;-1.456;2022-10-10T02:04:15;7.00;;;4.35;;
16870;SDS011;8552;48.120;-1.456;2022-10-10T02:06:51;6.88;;;4.13;;
16870;SDS011;8552;48.120;-1.456;2022-10-10T02:09:39;5.78;;;3.63;;
16870;SDS011;8552;48.120;-1.456;2022-10-10T02:12:08;6.68;;;4.43;;
16870;SDS011;8552;48.120;-1.456;2022-10-10T02:14:37;10.00;;;5.07;;
16870;SDS011;8552;48.120;-1.456;2022-10-10T02:17:07;6.18;;;3.88;;
16870;SDS011;8552;48.120;-1.456;2022-10-10T02:19:36;6.35;;;3.97;;
16870;SDS011;8552;48.120;-1.456;2022-10-10T02:22:06;7.85;;;4.03;;
16870;SDS011;8552;48.120;-1.456;2022-10-10T02:24:32;7.30;;;4.03;;
16870;SDS011;8552;48.120;-1.456;2022-10-10T02:27:00;11.07;;;3.97;;
16870;SDS011;8552;48.120;-1.456;2022-10-10T02:29:32;6.72;;;4.63;;
16870;SDS011;8552;48.120;-1.456;2022-10-10T02:32:08;6.80;;;4.40;;
16870;SDS011;8552;48.120;-1.456;2022-10-10T02:34:35;8.43;;;3.83;;
16870;SDS011;8552;48.120;-1.456;2022-10-10T02:37:05;5.88;;;3.88;;
16870;SDS011;8552;48.120;-1.456;2022-10-10T02:39:35;9.52;;;4.78;;
16870;SDS011;8552;48.120;-1.456;2022-10-10T02:42:05;8.73;;;5.22;;
16870;SDS011;8552;48.120;-1.456;2022-10-10T02:44:32;9.10;;;5.60;;
16870;SDS011;8552;48.120;-1.456;2022-10-10T02:46:58;14.15;;;5.63;;
16870;SDS011;8552;48.120;-1.456;2022-10-10T02:49:31;7.32;;;5.63;;
16870;SDS011;8552;48.120;-1.456;2022-10-10T02:51:58;8.00;;;5.28;;
16870;SDS011;8552;48.120;-1.456;2022-10-10T02:54:25;11.77;;;6.18;;
16870;SDS011;8552;48.120;-1.456;2022-10-10T02:56:51;8.32;;;5.85;;
16870;SDS011;8552;48.120;-1.456;2022-10-10T02:59:17;6.82;;;5.00;;
16870;SDS011;8552;48.120;-1.456;2022-10-10T03:01:43;10.18;;;5.40;;
16870;SDS011;8552;48.120;-1.456;2022-10-10T03:04:09;6.60;;;5.13;;
16870;SDS011;8552;48.120;-1.456;2022-10-10T03:06:35;9.43;;;5.68;;
16870;SDS011;8552;48.120;-1.456;2022-10-10T03:09:00;8.43;;;5.78;;
16870;SDS011;8552;48.120;-1.456;2022-10-10T03:11:27;5.25;;;4.22;;
16870;SDS011;8552;48.120;-1.456;2022-10-10T03:13:52;8.40;;;4.60;;
16870;SDS011;8552;48.120;-1.456;2022-10-10T03:16:18;7.43;;;5.03;;
16870;SDS011;8552;48.120;-1.456;2022-10-10T03:18:44;12.02;;;5.75;;
16870;SDS011;8552;48.120;-1.456;2022-10-10T03:21:10;6.88;;;4.13;;
16870;SDS011;8552;48.120;-1.456;2022-10-10T03:23:35;7.70;;;5.07;;
16870;SDS011;8552;48.120;-1.456;2022-10-10T03:26:01;10.77;;;5.32;;
16870;SDS011;8552;48.120;-1.456;2022-10-10T03:28:28;9.63;;;5.45;;
16870;SDS011;8552;48.120;-1.456;2022-10-10T03:30:54;12.73;;;4.97;;
16870;SDS011;8552;48.120;-1.456;2022-10-10T03:33:20;10.07;;;5.60;;
16870;SDS011;8552;48.120;-1.456;2022-10-10T03:35:46;14.75;;;6.30;;
16870;SDS011;8552;48.120;-1.456;2022-10-10T03:38:12;12.05;;;5.88;;
16870;SDS011;8552;48.120;-1.456;2022-10-10T03:40:39;10.68;;;5.55;;
16870;SDS011;8552;48.120;-1.456;2022-10-10T03:43:06;9.52;;;5.63;;
16870;SDS011;8552;48.120;-1.456;2022-10-10T03:45:32;9.68;;;5.75;;
16870;SDS011;8552;48.120;-1.456;2022-10-10T03:47:58;6.47;;;5.22;;
16870;SDS011;8552;48.120;-1.456;2022-10-10T03:50:23;8.02;;;5.57;;
16870;SDS011;8552;48.120;-1.456;2022-10-10T03:52:49;11.27;;;6.32;;
16870;SDS011;8552;48.120;-1.456;2022-10-10T03:55:15;10.73;;;5.93;;
16870;SDS011;8552;48.120;-1.456;2022-10-10T03:57:41;7.60;;;4.90;;
16870;SDS011;8552;48.120;-1.456;2022-10-10T04:00:06;7.57;;;5.40;;
16870;SDS011;8552;48.120;-1.456;2022-10-10T04:02:33;10.57;;;6.13;;
16870;SDS011;8552;48.120;-1.456;2022-10-10T04:04:59;10.05;;;6.15;;
16870;SDS011;8552;48.120;-1.456;2022-10-10T04:07:24;9.68;;;5.78;;
16870;SDS011;8552;48.120;-1.456;2022-10-10T04:09:50;10.23;;;6.65;;
16870;SDS011;8552;48.120;-1.456;2022-10-10T04:12:16;11.10;;;6.95;;
16870;SDS011;8552;48.120;-1.456;2022-10-10T04:14:41;12.05;;;7.60;;
16870;SDS011;8552;48.120;-1.456;2022-10-10T04:17:08;17.42;;;9.48;;
16870;SDS011;8552;48.120;-1.456;2022-10-10T04:19:34;35.63;;;13.25;;
16870;SDS011;8552;48.120;-1.456;2022-10-10T04:22:00;37.60;;;12.68;;
16870;SDS011;8552;48.120;-1.456;2022-10-10T04:24:26;50.58;;;15.70;;
16870;SDS011;8552;48.120;-1.456;2022-10-10T04:26:51;42.70;;;15.90;;
16870;SDS011;8552;48.120;-1.456;2022-10-10T04:29:17;32.88;;;14.13;;
16870;SDS011;8552;48.120;-1.456;2022-10-10T04:31:43;38.60;;;14.80;;
16870;SDS011;8552;48.120;-1.456;2022-10-10T04:34:08;40.13;;;15.27;;
16870;SDS011;8552;48.120;-1.456;2022-10-10T04:36:34;33.83;;;14.48;;
16870;SDS011;8552;48.120;-1.456;2022-10-10T04:39:00;34.45;;;16.13;;
16870;SDS011;8552;48.120;-1.456;2022-10-10T04:41:26;40.05;;;17.05;;
16870;SDS011;8552;48.120;-1.456;2022-10-10T04:43:52;38.17;;;17.40;;
16870;SDS011;8552;48.120;-1.456;2022-10-10T04:46:18;46.15;;;19.27;;
16870;SDS011;8552;48.120;-1.456;2022-10-10T04:48:43;39.03;;;17.33;;
16870;SDS011;8552;48.120;-1.456;2022-10-10T04:51:09;42.78;;;18.88;;
16870;SDS011;8552;48.120;-1.456;2022-10-10T04:53:35;43.25;;;18.95;;
16870;SDS011;8552;48.120;-1.456;2022-10-10T04:56:01;52.58;;;19.33;;
16870;SDS011;8552;48.120;-1.456;2022-10-10T04:58:26;47.72;;;19.23;;
16870;SDS011;8552;48.120;-1.456;2022-10-10T05:00:52;42.33;;;19.35;;
16870;SDS011;8552;48.120;-1.456;2022-10-10T05:03:19;42.85;;;18.17;;
16870;SDS011;8552;48.120;-1.456;2022-10-10T05:05:46;49.60;;;20.05;;
16870;SDS011;8552;48.120;-1.456;2022-10-10T05:08:12;48.58;;;19.20;;
16870;SDS011;8552;48.120;-1.456;2022-10-10T05:10:38;45.63;;;19.63;;
16870;SDS011;8552;48.120;-1.456;2022-10-10T05:13:05;56.22;;;21.02;;
16870;SDS011;8552;48.120;-1.456;2022-10-10T05:15:35;44.40;;;19.10;;
16870;SDS011;8552;48.120;-1.456;2022-10-10T05:18:01;44.60;;;19.48;;
16870;SDS011;8552;48.120;-1.456;2022-10-10T05:20:27;53.90;;;17.60;;
16870;SDS011;8552;48.120;-1.456;2022-10-10T05:22:53;53.38;;;18.38;;
16870;SDS011;8552;48.120;-1.456;2022-10-10T05:25:19;49.00;;;20.17;;
16870;SDS011;8552;48.120;-1.456;2022-10-10T05:27:44;50.70;;;20.60;;
16870;SDS011;8552;48.120;-1.456;2022-10-10T05:30:10;48.90;;;19.30;;
16870;SDS011;8552;48.120;-1.456;2022-10-10T05:32:36;54.25;;;19.70;;
16870;SDS011;8552;48.120;-1.456;2022-10-10T05:35:02;62.08;;;22.70;;
16870;SDS011;8552;48.120;-1.456;2022-10-10T05:37:29;55.13;;;21.80;;
16870;SDS011;8552;48.120;-1.456;2022-10-10T05:39:55;48.28;;;20.90;;
16870;SDS011;8552;48.120;-1.456;2022-10-10T05:42:21;58.75;;;23.42;;
16870;SDS011;8552;48.120;-1.456;2022-10-10T05:44:47;55.80;;;22.30;;
16870;SDS011;8552;48.120;-1.456;2022-10-10T05:47:12;49.13;;;20.33;;
16870;SDS011;8552;48.120;-1.456;2022-10-10T05:49:38;45.35;;;19.38;;
16870;SDS011;8552;48.120;-1.456;2022-10-10T05:52:04;54.50;;;20.23;;
16870;SDS011;8552;48.120;-1.456;2022-10-10T05:54:30;49.17;;;20.50;;
16870;SDS011;8552;48.120;-1.456;2022-10-10T05:56:55;72.78;;;24.98;;
16870;SDS011;8552;48.120;-1.456;2022-10-10T05:59:21;63.00;;;22.52;;
16870;SDS011;8552;48.120;-1.456;2022-10-10T06:01:47;58.60;;;21.88;;
16870;SDS011;8552;48.120;-1.456;2022-10-10T06:04:12;48.97;;;20.70;;
16870;SDS011;8552;48.120;-1.456;2022-10-10T06:06:38;50.70;;;20.80;;
16870;SDS011;8552;48.120;-1.456;2022-10-10T06:09:04;58.45;;;22.63;;
16870;SDS011;8552;48.120;-1.456;2022-10-10T06:11:30;46.22;;;21.45;;
16870;SDS011;8552;48.120;-1.456;2022-10-10T06:13:55;58.63;;;24.45;;
16870;SDS011;8552;48.120;-1.456;2022-10-10T06:16:24;55.20;;;23.00;;
16870;SDS011;8552;48.120;-1.456;2022-10-10T06:18:51;55.40;;;23.65;;
16870;SDS011;8552;48.120;-1.456;2022-10-10T06:21:17;54.88;;;23.25;;
16870;SDS011;8552;48.120;-1.456;2022-10-10T06:23:43;43.88;;;21.70;;
16870;SDS011;8552;48.120;-1.456;2022-10-10T06:26:09;48.00;;;22.23;;
16870;SDS011;8552;48.120;-1.456;2022-10-10T06:28:35;45.45;;;22.23;;
16870;SDS011;8552;48.120;-1.456;2022-10-10T06:31:02;46.60;;;20.85;;
16870;SDS011;8552;48.120;-1.456;2022-10-10T06:33:29;52.50;;;22.33;;
16870;SDS011;8552;48.120;-1.456;2022-10-10T06:35:55;47.50;;;23.17;;
16870;SDS011;8552;48.120;-1.456;2022-10-10T06:38:21;50.85;;;24.17;;
16870;SDS011;8552;48.120;-1.456;2022-10-10T06:40:47;64.22;;;26.58;;
16870;SDS011;8552;48.120;-1.456;2022-10-10T06:43:16;49.10;;;23.63;;
16870;SDS011;8552;48.120;-1.456;2022-10-10T06:45:45;56.20;;;23.73;;
16870;SDS011;8552;48.120;-1.456;2022-10-10T06:48:14;52.88;;;25.27;;
16870;SDS011;8552;48.120;-1.456;2022-10-10T06:50:39;58.03;;;25.17;;
16870;SDS011;8552;48.120;-1.456;2022-10-10T06:53:05;53.50;;;25.60;;
16870;SDS011;8552;48.120;-1.456;2022-10-10T06:55:31;50.47;;;26.05;;
16870;SDS011;8552;48.120;-1.456;2022-10-10T06:57:57;46.08;;;23.55;;
16870;SDS011;8552;48.120;-1.456;2022-10-10T07:00:23;44.03;;;23.40;;
16870;SDS011;8552;48.120;-1.456;2022-10-10T07:02:49;59.30;;;26.05;;
16870;SDS011;8552;48.120;-1.456;2022-10-10T07:05:15;46.97;;;23.33;;
16870;SDS011;8552;48.120;-1.456;2022-10-10T07:07:42;49.50;;;22.80;;
16870;SDS011;8552;48.120;-1.456;2022-10-10T07:10:09;45.50;;;22.05;;
16870;SDS011;8552;48.120;-1.456;2022-10-10T07:12:37;60.55;;;25.70;;
16870;SDS011;8552;48.120;-1.456;2022-10-10T07:15:03;54.47;;;24.98;;
16870;SDS011;8552;48.120;-1.456;2022-10-10T07:17:30;51.38;;;26.70;;
16870;SDS011;8552;48.120;-1.456;2022-10-10T07:19:56;41.47;;;23.33;;
16870;SDS011;8552;48.120;-1.456;2022-10-10T07:22:22;49.65;;;23.80;;
16870;SDS011;8552;48.120;-1.456;2022-10-10T07:24:48;45.17;;;23.55;;
16870;SDS011;8552;48.120;-1.456;2022-10-10T07:27:13;48.92;;;25.92;;
16870;SDS011;8552;48.120;-1.456;2022-10-10T07:29:39;47.42;;;24.13;;
16870;SDS011;8552;48.120;-1.456;2022-10-10T07:32:05;50.80;;;25.75;;
16870;SDS011;8552;48.120;-1.456;2022-10-10T07:34:31;46.05;;;25.38;;
16870;SDS011;8552;48.120;-1.456;2022-10-10T07:36:57;50.13;;;25.75;;
16870;SDS011;8552;48.120;-1.456;2022-10-10T07:39:23;48.15;;;24.73;;
16870;SDS011;8552;48.120;-1.456;2022-10-10T07:41:50;49.95;;;24.70;;
16870;SDS011;8552;48.120;-1.456;2022-10-10T07:44:16;51.95;;;27.10;;
16870;SDS011;8552;48.120;-1.456;2022-10-10T07:46:43;52.85;;;27.00;;
16870;SDS011;8552;48.120;-1.456;2022-10-10T07:49:09;51.88;;;26.20;;
16870;SDS011;8552;48.120;-1.456;2022-10-10T07:51:35;46.95;;;24.30;;
16870;SDS011;8552;48.120;-1.456;2022-10-10T07:54:01;41.75;;;22.90;;
16870;SDS011;8552;48.120;-1.456;2022-10-10T07:56:27;49.85;;;25.73;;
16870;SDS011;8552;48.120;-1.456;2022-10-10T07:58:53;47.55;;;24.10;;
16870;SDS011;8552;48.120;-1.456;2022-10-10T08:01:19;46.13;;;23.45;;
16870;SDS011;8552;48.120;-1.456;2022-10-10T08:03:44;42.65;;;24.08;;
16870;SDS011;8552;48.120;-1.456;2022-10-10T08:06:11;50.00;;;24.10;;
16870;SDS011;8552;48.120;-1.456;2022-10-10T08:08:39;42.35;;;24.45;;
16870;SDS011;8552;48.120;-1.456;2022-10-10T08:11:06;43.53;;;23.27;;
16870;SDS011;8552;48.120;-1.456;2022-10-10T08:13:34;39.38;;;22.90;;
16870;SDS011;8552;48.120;-1.456;2022-10-10T08:16:01;40.05;;;23.15;;
16870;SDS011;8552;48.120;-1.456;2022-10-10T08:18:28;43.67;;;23.67;;
16870;SDS011;8552;48.120;-1.456;2022-10-10T08:20:58;38.58;;;22.25;;
16870;SDS011;8552;48.120;-1.456;2022-10-10T08:23:28;37.22;;;21.42;;
16870;SDS011;8552;48.120;-1.456;2022-10-10T08:25:57;36.05;;;21.13;;
16870;SDS011;8552;48.120;-1.456;2022-10-10T08:28:27;40.03;;;21.90;;
16870;SDS011;8552;48.120;-1.456;2022-10-10T08:30:53;39.30;;;21.33;;
16870;SDS011;8552;48.120;-1.456;2022-10-10T08:33:19;36.33;;;22.15;;
16870;SDS011;8552;48.120;-1.456;2022-10-10T08:35:45;35.55;;;20.65;;
16870;SDS011;8552;48.120;-1.456;2022-10-10T08:38:10;38.55;;;20.48;;
16870;SDS011;8552;48.120;-1.456;2022-10-10T08:40:45;39.13;;;21.17;;
16870;SDS011;8552;48.120;-1.456;2022-10-10T08:43:19;33.47;;;21.73;;
16870;SDS011;8552;48.120;-1.456;2022-10-10T08:45:49;42.38;;;23.83;;
16870;SDS011;8552;48.120;-1.456;2022-10-10T08:48:20;42.45;;;23.30;;
16870;SDS011;8552;48.120;-1.456;2022-10-10T08:50:54;39.00;;;21.10;;
16870;SDS011;8552;48.120;-1.456;2022-10-10T08:53:26;39.90;;;22.13;;
16870;SDS011;8552;48.120;-1.456;2022-10-10T08:55:58;31.05;;;16.80;;
16870;SDS011;8552;48.120;-1.456;2022-10-10T09:01:34;30.13;;;16.95;;
16870;SDS011;8552;48.120;-1.456;2022-10-10T09:04:02;36.67;;;17.52;;
16870;SDS011;8552;48.120;-1.456;2022-10-10T09:09:18;32.72;;;17.05;;
16870;SDS011;8552;48.120;-1.456;2022-10-10T09:12:08;31.10;;;15.32;;
16870;SDS011;8552;48.120;-1.456;2022-10-10T09:17:45;28.75;;;16.55;;
16870;SDS011;8552;48.120;-1.456;2022-10-10T09:23:06;41.05;;;23.13;;
16870;SDS011;8552;48.120;-1.456;2022-10-10T09:25:42;36.20;;;20.67;;
16870;SDS011;8552;48.120;-1.456;2022-10-10T09:30:48;40.50;;;19.77;;
16870;SDS011;8552;48.120;-1.456;2022-10-10T09:33:22;29.95;;;16.20;;
16870;SDS011;8552;48.120;-1.456;2022-10-10T09:36:15;31.85;;;15.43;;
16870;SDS011;8552;48.120;-1.456;2022-10-10T09:38:55;31.73;;;15.30;;
16870;SDS011;8552;48.120;-1.456;2022-10-10T09:41:27;28.98;;;13.65;;
16870;SDS011;8552;48.120;-1.456;2022-10-10T09:44:08;22.38;;;13.43;;
16870;SDS011;8552;48.120;-1.456;2022-10-10T09:46:36;31.52;;;12.90;;
16870;SDS011;8552;48.120;-1.456;2022-10-10T09:49:02;35.33;;;15.18;;
16870;SDS011;8552;48.120;-1.456;2022-10-10T09:51:29;27.55;;;13.80;;
16870;SDS011;8552;48.120;-1.456;2022-10-10T09:53:55;25.98;;;14.27;;
16870;SDS011;8552;48.120;-1.456;2022-10-10T09:56:23;31.00;;;15.73;;
16870;SDS011;8552;48.120;-1.456;2022-10-10T09:58:54;21.95;;;13.55;;
16870;SDS011;8552;48.120;-1.456;2022-10-10T10:01:28;18.48;;;11.48;;
16870;SDS011;8552;48.120;-1.456;2022-10-10T10:06:28;21.00;;;10.05;;
16870;SDS011;8552;48.120;-1.456;2022-10-10T10:08:54;22.23;;;10.63;;
16870;SDS011;8552;48.120;-1.456;2022-10-10T10:11:28;33.70;;;10.07;;
16870;SDS011;8552;48.120;-1.456;2022-10-10T10:13:58;22.50;;;9.60;;
16870;SDS011;8552;48.120;-1.456;2022-10-10T10:16:34;23.40;;;9.55;;
16870;SDS011;8552;48.120;-1.456;2022-10-10T10:19:03;19.40;;;8.52;;
16870;SDS011;8552;48.120;-1.456;2022-10-10T10:21:31;16.45;;;9.18;;
16870;SDS011;8552;48.120;-1.456;2022-10-10T10:24:21;20.33;;;8.90;;
16870;SDS011;8552;48.120;-1.456;2022-10-10T10:26:53;15.68;;;8.55;;
16870;SDS011;8552;48.120;-1.456;2022-10-10T10:31:58;16.20;;;7.88;;
16870;SDS011;8552;48.120;-1.456;2022-10-10T10:46:32;22.83;;;9.65;;
16870;SDS011;8552;48.120;-1.456;2022-10-10T10:49:08;20.05;;;9.73;;
16870;SDS011;8552;48.120;-1.456;2022-10-10T10:57:50;20.63;;;8.20;;
16870;SDS011;8552;48.120;-1.456;2022-10-10T11:00:34;22.70;;;8.00;;
16870;SDS011;8552;48.120;-1.456;2022-10-10T11:08:57;15.27;;;7.85;;
16870;SDS011;8552;48.120;-1.456;2022-10-10T11:11:29;23.42;;;9.10;;
16870;SDS011;8552;48.120;-1.456;2022-10-10T11:14:06;20.08;;;9.40;;
16870;SDS011;8552;48.120;-1.456;2022-10-10T11:16:38;18.02;;;9.95;;
16870;SDS011;8552;48.120;-1.456;2022-10-10T11:21:48;17.67;;;8.68;;
16870;SDS011;8552;48.120;-1.456;2022-10-10T11:26:52;20.15;;;8.15;;
16870;SDS011;8552;48.120;-1.456;2022-10-10T11:29:25;16.83;;;7.93;;
16870;SDS011;8552;48.120;-1.456;2022-10-10T11:31:59;19.40;;;8.35;;
16870;SDS011;8552;48.120;-1.456;2022-10-10T11:34:41;20.95;;;8.82;;
16870;SDS011;8552;48.120;-1.456;2022-10-10T11:37:36;19.48;;;8.18;;
16870;SDS011;8552;48.120;-1.456;2022-10-10T11:40:05;16.98;;;8.68;;
16870;SDS011;8552;48.120;-1.456;2022-10-10T11:42:49;18.00;;;8.75;;
16870;SDS011;8552;48.120;-1.456;2022-10-10T11:45:29;15.13;;;8.13;;
16870;SDS011;8552;48.120;-1.456;2022-10-10T11:48:19;16.98;;;7.97;;
16870;SDS011;8552;48.120;-1.456;2022-10-10T11:51:10;15.75;;;7.97;;
16870;SDS011;8552;48.120;-1.456;2022-10-10T11:53:45;14.38;;;7.90;;
16870;SDS011;8552;48.120;-1.456;2022-10-10T11:56:27;18.02;;;7.47;;
16870;SDS011;8552;48.120;-1.456;2022-10-10T11:59:12;16.67;;;7.45;;
16870;SDS011;8552;48.120;-1.456;2022-10-10T12:01:47;13.65;;;7.20;;
16870;SDS011;8552;48.120;-1.456;2022-10-10T12:04:15;18.08;;;8.02;;
16870;SDS011;8552;48.120;-1.456;2022-10-10T12:11:42;16.30;;;7.72;;
16870;SDS011;8552;48.120;-1.456;2022-10-10T12:14:16;18.35;;;8.13;;
16870;SDS011;8552;48.120;-1.456;2022-10-10T12:16:43;15.75;;;7.60;;
16870;SDS011;8552;48.120;-1.456;2022-10-10T12:19:17;15.93;;;6.28;;
16870;SDS011;8552;48.120;-1.456;2022-10-10T12:24:19;11.95;;;5.70;;
16870;SDS011;8552;48.120;-1.456;2022-10-10T12:37:21;8.10;;;4.18;;
16870;SDS011;8552;48.120;-1.456;2022-10-10T12:40:00;8.35;;;3.75;;
16870;SDS011;8552;48.120;-1.456;2022-10-10T12:47:52;7.82;;;3.13;;
16870;SDS011;8552;48.120;-1.456;2022-10-10T12:53:02;5.90;;;2.95;;
16870;SDS011;8552;48.120;-1.456;2022-10-10T12:55:31;9.00;;;3.88;;
16870;SDS011;8552;48.120;-1.456;2022-10-10T12:58:19;6.45;;;2.78;;
16870;SDS011;8552;48.120;-1.456;2022-10-10T13:00:59;6.78;;;3.40;;
16870;SDS011;8552;48.120;-1.456;2022-10-10T13:03:37;6.40;;;3.42;;
16870;SDS011;8552;48.120;-1.456;2022-10-10T13:08:57;6.30;;;3.22;;
16870;SDS011;8552;48.120;-1.456;2022-10-10T13:11:25;7.10;;;3.90;;
16870;SDS011;8552;48.120;-1.456;2022-10-10T13:13:55;8.73;;;3.58;;
16870;SDS011;8552;48.120;-1.456;2022-10-10T13:16:22;9.07;;;4.30;;
16870;SDS011;8552;48.120;-1.456;2022-10-10T13:18:56;9.65;;;3.85;;
16870;SDS011;8552;48.120;-1.456;2022-10-10T13:21:27;8.25;;;4.32;;
16870;SDS011;8552;48.120;-1.456;2022-10-10T13:24:01;8.82;;;3.38;;
16870;SDS011;8552;48.120;-1.456;2022-10-10T13:26:36;5.28;;;3.60;;
16870;SDS011;8552;48.120;-1.456;2022-10-10T13:29:11;5.95;;;3.15;;
16870;SDS011;8552;48.120;-1.456;2022-10-10T13:31:49;6.28;;;3.08;;
16870;SDS011;8552;48.120;-1.456;2022-10-10T13:34:17;7.53;;;3.00;;
16870;SDS011;8552;48.120;-1.456;2022-10-10T13:36:46;2.80;;;1.48;;
16870;SDS011;8552;48.120;-1.456;2022-10-10T13:39:15;2.17;;;1.50;;
16870;SDS011;8552;48.120;-1.456;2022-10-10T13:41:45;2.83;;;1.58;;
16870;SDS011;8552;48.120;-1.456;2022-10-10T13:44:12;4.50;;;3.22;;
16870;SDS011;8552;48.120;-1.456;2022-10-10T13:46:39;14.15;;;9.40;;
16870;SDS011;8552;48.120;-1.456;2022-10-10T13:49:48;6.45;;;4.00;;
16870;SDS011;8552;48.120;-1.456;2022-10-10T13:52:31;6.20;;;4.18;;
16870;SDS011;8552;48.120;-1.456;2022-10-10T13:54:49;5.82;;;4.68;;
16870;SDS011;8552;48.120;-1.456;2022-10-10T13:57:19;1.80;;;1.35;;
16870;SDS011;8552;48.120;-1.456;2022-10-10T14:00:03;2.05;;;1.50;;
16870;SDS011;8552;48.120;-1.456;2022-10-10T14:02:32;2.92;;;0.85;;
16870;SDS011;8552;48.120;-1.456;2022-10-10T14:05:03;1.35;;;0.93;;
16870;SDS011;8552;48.120;-1.456;2022-10-10T14:07:31;1.60;;;0.80;;
16870;SDS011;8552;48.120;-1.456;2022-10-10T14:10:00;2.22;;;1.10;;
16870;SDS011;8552;48.120;-1.456;2022-10-10T14:15:28;2.15;;;1.48;;
16870;SDS011;8552;48.120;-1.456;2022-10-10T14:20:43;7.32;;;2.65;;
16870;SDS011;8552;48.120;-1.456;2022-10-10T14:23:09;4.45;;;3.13;;
16870;SDS011;8552;48.120;-1.456;2022-10-10T14:25:39;4.05;;;1.90;;
16870;SDS011;8552;48.120;-1.456;2022-10-10T14:28:05;5.30;;;1.80;;
16870;SDS011;8552;48.120;-1.456;2022-10-10T14:30:36;10.07;;;5.63;;
16870;SDS011;8552;48.120;-1.456;2022-10-10T14:33:08;7.97;;;4.03;;
16870;SDS011;8552;48.120;-1.456;2022-10-10T14:35:38;5.53;;;1.80;;
16870;SDS011;8552;48.120;-1.456;2022-10-10T14:38:04;8.73;;;3.88;;
16870;SDS011;8552;48.120;-1.456;2022-10-10T14:40:30;4.38;;;2.30;;
16870;SDS011;8552;48.120;-1.456;2022-10-10T14:42:57;7.78;;;4.22;;
16870;SDS011;8552;48.120;-1.456;2022-10-10T14:45:23;5.32;;;2.83;;
16870;SDS011;8552;48.120;-1.456;2022-10-10T14:47:48;3.60;;;2.38;;
16870;SDS011;8552;48.120;-1.456;2022-10-10T14:50:20;6.00;;;2.90;;
16870;SDS011;8552;48.120;-1.456;2022-10-10T14:52:48;5.30;;;1.88;;
16870;SDS011;8552;48.120;-1.456;2022-10-10T14:55:14;7.03;;;3.08;;
16870;SDS011;8552;48.120;-1.456;2022-10-10T14:57:40;10.32;;;4.15;;
16870;SDS011;8552;48.120;-1.456;2022-10-10T15:00:07;8.68;;;5.13;;
16870;SDS011;8552;48.120;-1.456;2022-10-10T15:02:38;8.25;;;5.75;;
16870;SDS011;8552;48.120;-1.456;2022-10-10T15:05:04;8.48;;;4.13;;
16870;SDS011;8552;48.120;-1.456;2022-10-10T15:07:30;5.13;;;2.83;;
16870;SDS011;8552;48.120;-1.456;2022-10-10T15:09:55;1.85;;;1.15;;
16870;SDS011;8552;48.120;-1.456;2022-10-10T15:12:21;2.25;;;1.40;;
16870;SDS011;8552;48.120;-1.456;2022-10-10T15:14:47;6.72;;;3.53;;
16870;SDS011;8552;48.120;-1.456;2022-10-10T15:17:12;4.57;;;4.07;;
16870;SDS011;8552;48.120;-1.456;2022-10-10T15:19:38;4.63;;;1.00;;
16870;SDS011;8552;48.120;-1.456;2022-10-10T15:22:03;1.85;;;1.30;;
16870;SDS011;8552;48.120;-1.456;2022-10-10T15:24:29;1.73;;;1.25;;
16870;SDS011;8552;48.120;-1.456;2022-10-10T15:26:57;4.45;;;1.27;;
16870;SDS011;8552;48.120;-1.456;2022-10-10T15:29:23;3.20;;;2.13;;
16870;SDS011;8552;48.120;-1.456;2022-10-10T15:31:49;2.67;;;1.30;;
16870;SDS011;8552;48.120;-1.456;2022-10-10T15:34:17;4.72;;;1.02;;
16870;SDS011;8552;48.120;-1.456;2022-10-10T15:36:45;4.47;;;2.53;;
16870;SDS011;8552;48.120;-1.456;2022-10-10T15:39:15;2.90;;;1.50;;
16870;SDS011;8552;48.120;-1.456;2022-10-10T15:41:45;1.90;;;1.73;;
16870;SDS011;8552;48.120;-1.456;2022-10-10T15:44:14;6.72;;;3.83;;
16870;SDS011;8552;48.120;-1.456;2022-10-10T15:46:42;6.85;;;3.35;;
16870;SDS011;8552;48.120;-1.456;2022-10-10T15:49:09;11.57;;;5.97;;
16870;SDS011;8552;48.120;-1.456;2022-10-10T15:51:36;3.70;;;1.92;;
16870;SDS011;8552;48.120;-1.456;2022-10-10T15:54:02;5.72;;;2.58;;
16870;SDS011;8552;48.120;-1.456;2022-10-10T15:56:28;2.50;;;1.63;;
16870;SDS011;8552;48.120;-1.456;2022-10-10T15:58:58;5.30;;;1.92;;
16870;SDS011;8552;48.120;-1.456;2022-10-10T16:01:25;7.35;;;2.83;;
16870;SDS011;8552;48.120;-1.456;2022-10-10T16:03:53;4.53;;;1.98;;
16870;SDS011;8552;48.120;-1.456;2022-10-10T16:06:20;11.52;;;4.78;;
16870;SDS011;8552;48.120;-1.456;2022-10-10T16:08:46;6.07;;;2.70;;
16870;SDS011;8552;48.120;-1.456;2022-10-10T16:11:16;6.55;;;4.60;;
16870;SDS011;8552;48.120;-1.456;2022-10-10T16:13:51;5.43;;;2.17;;
16870;SDS011;8552;48.120;-1.456;2022-10-10T16:16:18;6.22;;;2.25;;
16870;SDS011;8552;48.120;-1.456;2022-10-10T16:18:45;4.53;;;2.50;;
16870;SDS011;8552;48.120;-1.456;2022-10-10T16:21:13;4.88;;;1.30;;
16870;SDS011;8552;48.120;-1.456;2022-10-10T16:23:41;6.00;;;2.70;;
16870;SDS011;8552;48.120;-1.456;2022-10-10T16:26:10;3.95;;;1.40;;
16870;SDS011;8552;48.120;-1.456;2022-10-10T16:28:38;2.38;;;0.93;;
16870;SDS011;8552;48.120;-1.456;2022-10-10T16:31:04;2.70;;;1.23;;
16870;SDS011;8552;48.120;-1.456;2022-10-10T16:33:32;0.90;;;0.90;;
16870;SDS011;8552;48.120;-1.456;2022-10-10T16:35:59;0.73;;;0.50;;
16870;SDS011;8552;48.120;-1.456;2022-10-10T16:38:25;0.65;;;0.65;;